Time;durP1;ratioP1;P1;durP2;ratioP2;P2;SDS_P1;SDS_P2;PMS_P1;PMS_P2;Temp;Humidity;BMP_temperature;BMP_pressure;BME280_temperature;BME280_humidity;BME280_pressure;Samples;Min_cycle;Max_cycle;Signal;HPM_P1;HPM_P2
2022/01/09 00:01:12;;;;;;;82.33;44.83;;;;;;;;;;4401171;32;20316;-50
2022/01/09 00:03:37;;;;;;;90.77;45.90;;;;;;;;;;4400768;32;20659;-50
2022/01/09 00:06:03;;;;;;;92.83;47.17;;;;;;;;;;4401256;32;20229;-51
2022/01/09 00:08:28;;;;;;;85.63;42.93;;;;;;;;;;4401106;32;20371;-53
2022/01/09 00:10:55;;;;;;;76.60;41.20;;;;;;;;;;4401003;32;20376;-52
2022/01/09 00:13:20;;;;;;;81.53;44.57;;;;;;;;;;4400980;32;20264;-53
2022/01/09 00:15:46;;;;;;;73.80;43.77;;;;;;;;;;4400933;32;20213;-51
2022/01/09 00:18:12;;;;;;;88.47;45.13;;;;;;;;;;4401194;32;20340;-52
2022/01/09 00:20:37;;;;;;;87.67;48.27;;;;;;;;;;4401106;32;20229;-51
2022/01/09 00:23:03;;;;;;;89.13;48.33;;;;;;;;;;4399332;32;20667;-51
2022/01/09 00:25:28;;;;;;;88.67;47.37;;;;;;;;;;4401353;32;20675;-52
2022/01/09 00:27:54;;;;;;;90.83;45.70;;;;;;;;;;4401174;32;20367;-51
2022/01/09 00:30:22;;;;;;;91.83;46.83;;;;;;;;;;4399931;32;20254;-51
2022/01/09 00:32:49;;;;;;;84.30;46.47;;;;;;;;;;4400356;32;20307;-51
2022/01/09 00:35:15;;;;;;;101.87;53.00;;;;;;;;;;4401560;32;20201;-52
2022/01/09 00:37:41;;;;;;;111.17;57.70;;;;;;;;;;4400942;32;20317;-52
2022/01/09 00:40:09;;;;;;;103.10;55.57;;;;;;;;;;4401247;32;20610;-52
2022/01/09 00:42:35;;;;;;;105.20;57.17;;;;;;;;;;4399962;32;20327;-50
2022/01/09 00:45:01;;;;;;;127.87;60.20;;;;;;;;;;4401161;32;20693;-54
2022/01/09 00:47:26;;;;;;;115.27;60.27;;;;;;;;;;4400861;32;20312;-52
2022/01/09 00:49:52;;;;;;;156.77;75.20;;;;;;;;;;4386710;32;20334;-51
2022/01/09 00:52:18;;;;;;;135.60;70.40;;;;;;;;;;4400560;32;20257;-51
2022/01/09 00:54:43;;;;;;;127.63;68.13;;;;;;;;;;4401057;32;20341;-51
2022/01/09 00:57:09;;;;;;;101.73;53.17;;;;;;;;;;4401252;32;20792;-51
2022/01/09 00:59:34;;;;;;;88.07;42.33;;;;;;;;;;4400358;32;20994;-51
2022/01/09 01:02:00;;;;;;;68.53;34.50;;;;;;;;;;4399941;32;20233;-50
2022/01/09 01:04:25;;;;;;;54.27;31.13;;;;;;;;;;4401006;32;20345;-53
2022/01/09 01:06:51;;;;;;;68.37;32.30;;;;;;;;;;4400774;32;20335;-50
2022/01/09 01:09:17;;;;;;;64.80;34.17;;;;;;;;;;4401483;32;20237;-51
2022/01/09 01:11:43;;;;;;;57.97;31.87;;;;;;;;;;4386104;32;20257;-52
2022/01/09 01:14:09;;;;;;;55.57;30.57;;;;;;;;;;4400891;32;20345;-53
2022/01/09 01:16:34;;;;;;;57.50;30.27;;;;;;;;;;4400612;32;20305;-52
2022/01/09 01:19:01;;;;;;;45.93;28.10;;;;;;;;;;4400387;32;20285;-51
2022/01/09 01:21:27;;;;;;;52.57;30.63;;;;;;;;;;4387478;32;20282;-51
2022/01/09 01:23:52;;;;;;;60.13;32.73;;;;;;;;;;4400573;32;20292;-50
2022/01/09 01:26:18;;;;;;;65.97;36.43;;;;;;;;;;4394670;32;21080;-51
2022/01/09 01:28:43;;;;;;;77.80;44.43;;;;;;;;;;4408526;32;20541;-51
2022/01/09 01:31:10;;;;;;;98.87;51.53;;;;;;;;;;4398390;32;20366;-52
2022/01/09 01:33:36;;;;;;;91.93;51.20;;;;;;;;;;4400853;32;20206;-52
2022/01/09 01:36:02;;;;;;;97.27;51.07;;;;;;;;;;4402935;32;20459;-50
2022/01/09 01:38:27;;;;;;;94.63;52.50;;;;;;;;;;4403174;32;20329;-51
2022/01/09 01:40:53;;;;;;;95.03;51.27;;;;;;;;;;4402373;32;20280;-51
2022/01/09 01:43:18;;;;;;;100.67;50.43;;;;;;;;;;4403279;32;20764;-53
2022/01/09 01:45:44;;;;;;;94.77;49.10;;;;;;;;;;4403117;32;20233;-51
2022/01/09 01:48:10;;;;;;;100.03;51.73;;;;;;;;;;4400676;32;20293;-51
2022/01/09 01:50:38;;;;;;;99.67;51.07;;;;;;;;;;4387906;32;20375;-52
2022/01/09 01:53:15;;;;;;;87.30;50.37;;;;;;;;;;4387535;32;20264;-51
2022/01/09 01:55:41;;;;;;;94.30;47.27;;;;;;;;;;4403858;32;20282;-51
2022/01/09 01:58:10;;;;;;;83.67;46.67;;;;;;;;;;4402958;32;20629;-51
2022/01/09 02:00:37;;;;;;;96.10;50.07;;;;;;;;;;4403390;32;20630;-52
2022/01/09 02:03:03;;;;;;;93.23;47.80;;;;;;;;;;4402828;32;20633;-52
2022/01/09 02:05:28;;;;;;;90.10;47.77;;;;;;;;;;4403685;32;20372;-50
2022/01/09 02:07:55;;;;;;;83.57;45.53;;;;;;;;;;4403196;32;20277;-52
2022/01/09 02:10:20;;;;;;;77.10;44.87;;;;;;;;;;4390033;32;20283;-51
2022/01/09 02:12:49;;;;;;;83.53;45.27;;;;;;;;;;4402948;32;20296;-51
2022/01/09 02:15:30;;;;;;;86.53;44.37;;;;;;;;;;4403573;32;20282;-52
2022/01/09 02:17:55;;;;;;;83.30;45.97;;;;;;;;;;4403005;32;20259;-51
2022/01/09 02:20:22;;;;;;;82.80;44.57;;;;;;;;;;4404388;32;20674;-51
2022/01/09 02:22:47;;;;;;;79.17;43.20;;;;;;;;;;4403503;32;20580;-51
2022/01/09 02:25:14;;;;;;;106.20;50.33;;;;;;;;;;4402186;32;20267;-51
2022/01/09 02:27:40;;;;;;;126.03;62.40;;;;;;;;;;4403474;32;20282;-51
2022/01/09 02:30:06;;;;;;;148.73;67.90;;;;;;;;;;4402857;32;20214;-51
2022/01/09 02:32:32;;;;;;;120.47;59.40;;;;;;;;;;4403196;32;20245;-51
2022/01/09 02:34:57;;;;;;;119.37;59.53;;;;;;;;;;4403204;32;20346;-51
2022/01/09 02:37:23;;;;;;;113.10;58.50;;;;;;;;;;4403369;32;20602;-51
2022/01/09 02:39:49;;;;;;;113.27;58.80;;;;;;;;;;4403424;32;20327;-52
2022/01/09 02:42:25;;;;;;;118.50;55.73;;;;;;;;;;4402962;32;20702;-52
2022/01/09 02:44:51;;;;;;;80.77;43.53;;;;;;;;;;4402582;32;20209;-51
2022/01/09 02:47:17;;;;;;;91.03;41.97;;;;;;;;;;4402764;32;20308;-51
2022/01/09 02:49:48;;;;;;;83.67;41.43;;;;;;;;;;4403296;32;20692;-52
2022/01/09 02:52:27;;;;;;;71.77;39.17;;;;;;;;;;4403208;32;20241;-52
2022/01/09 02:55:12;;;;;;;69.07;42.30;;;;;;;;;;4402502;32;20198;-53
2022/01/09 02:57:58;;;;;;;76.77;42.50;;;;;;;;;;4399424;32;20705;-52
2022/01/09 03:00:25;;;;;;;91.90;45.00;;;;;;;;;;4403139;32;20260;-52
2022/01/09 03:02:51;;;;;;;76.30;38.13;;;;;;;;;;4402913;32;20256;-50
2022/01/09 03:05:17;;;;;;;64.57;35.87;;;;;;;;;;4401860;32;20210;-51
2022/01/09 03:07:44;;;;;;;66.90;35.40;;;;;;;;;;4403043;32;20296;-54
2022/01/09 03:10:11;;;;;;;65.10;35.00;;;;;;;;;;4402851;32;20320;-53
2022/01/09 03:12:37;;;;;;;72.87;40.90;;;;;;;;;;4402371;32;20628;-51
2022/01/09 03:15:03;;;;;;;59.37;30.53;;;;;;;;;;4401173;32;20569;-51
2022/01/09 03:17:29;;;;;;;47.87;25.83;;;;;;;;;;4391808;32;20344;-51
2022/01/09 03:19:55;;;;;;;35.27;21.53;;;;;;;;;;4387192;32;20292;-51
2022/01/09 03:22:20;;;;;;;31.20;20.57;;;;;;;;;;4397069;32;20365;-51
2022/01/09 03:24:46;;;;;;;36.47;20.80;;;;;;;;;;4402406;32;20631;-51
2022/01/09 03:27:11;;;;;;;32.33;19.97;;;;;;;;;;4402260;32;20325;-51
2022/01/09 03:29:38;;;;;;;37.23;20.73;;;;;;;;;;4401642;32;20720;-52
2022/01/09 03:32:04;;;;;;;37.83;21.47;;;;;;;;;;4401955;32;20271;-52
2022/01/09 03:34:30;;;;;;;40.33;21.83;;;;;;;;;;4401676;32;20385;-54
2022/01/09 03:36:55;;;;;;;44.57;22.07;;;;;;;;;;4401434;32;20737;-53
2022/01/09 03:39:21;;;;;;;47.03;23.40;;;;;;;;;;4402298;32;20276;-52
2022/01/09 03:41:46;;;;;;;42.77;22.73;;;;;;;;;;4402134;32;20237;-52
2022/01/09 03:44:11;;;;;;;40.87;22.23;;;;;;;;;;4401871;32;20343;-52
2022/01/09 03:46:37;;;;;;;43.33;24.00;;;;;;;;;;4401491;32;20242;-52
2022/01/09 03:49:02;;;;;;;50.07;23.93;;;;;;;;;;4401992;32;20273;-51
2022/01/09 03:51:32;;;;;;;46.73;22.50;;;;;;;;;;4402244;32;20394;-52
2022/01/09 03:53:59;;;;;;;35.23;21.73;;;;;;;;;;4401690;32;20273;-53
2022/01/09 03:56:25;;;;;;;36.87;21.13;;;;;;;;;;4401783;32;20260;-53
2022/01/09 03:58:50;;;;;;;40.90;22.70;;;;;;;;;;4401805;32;20720;-55
2022/01/09 04:01:16;;;;;;;41.13;24.33;;;;;;;;;;4401583;32;20283;-52
2022/01/09 04:03:41;;;;;;;47.47;25.73;;;;;;;;;;4402319;32;20277;-51
2022/01/09 04:06:07;;;;;;;51.00;27.03;;;;;;;;;;4401271;32;20263;-52
2022/01/09 04:08:34;;;;;;;44.83;25.83;;;;;;;;;;4402136;32;20303;-53
2022/01/09 04:11:02;;;;;;;48.23;27.13;;;;;;;;;;4401425;32;20453;-51
2022/01/09 04:13:28;;;;;;;48.97;28.30;;;;;;;;;;4401441;32;20249;-51
2022/01/09 04:15:53;;;;;;;55.17;33.47;;;;;;;;;;4400970;32;20739;-52
2022/01/09 04:18:21;;;;;;;64.00;34.50;;;;;;;;;;4401569;32;20300;-53
2022/01/09 04:20:48;;;;;;;60.63;34.67;;;;;;;;;;4401478;32;20241;-51
2022/01/09 04:23:15;;;;;;;57.90;34.27;;;;;;;;;;4401535;32;20252;-51
2022/01/09 04:25:41;;;;;;;75.43;41.73;;;;;;;;;;4401853;32;20221;-53
2022/01/09 04:28:07;;;;;;;73.33;41.63;;;;;;;;;;4401133;32;20230;-53
2022/01/09 04:30:32;;;;;;;65.53;39.20;;;;;;;;;;4401307;32;20582;-52
2022/01/09 04:32:58;;;;;;;77.77;38.77;;;;;;;;;;4401066;32;20243;-51
2022/01/09 04:35:23;;;;;;;66.97;36.73;;;;;;;;;;4401521;32;20310;-51
2022/01/09 04:37:49;;;;;;;71.43;40.90;;;;;;;;;;4400772;32;20315;-52
2022/01/09 04:40:17;;;;;;;60.07;33.90;;;;;;;;;;4401568;32;20201;-52
2022/01/09 04:42:46;;;;;;;53.30;30.73;;;;;;;;;;4401502;32;20237;-51
2022/01/09 04:45:14;;;;;;;54.90;31.50;;;;;;;;;;4400301;32;20222;-51
2022/01/09 04:47:45;;;;;;;52.13;30.67;;;;;;;;;;4401133;32;20240;-51
2022/01/09 04:50:16;;;;;;;52.60;31.93;;;;;;;;;;4401474;32;20252;-50
2022/01/09 04:52:43;;;;;;;57.17;30.37;;;;;;;;;;4400986;32;20284;-50
2022/01/09 04:55:09;;;;;;;62.17;37.73;;;;;;;;;;4401505;32;20285;-50
2022/01/09 04:57:34;;;;;;;61.83;33.47;;;;;;;;;;4400801;32;20308;-51
2022/01/09 05:00:00;;;;;;;57.87;34.27;;;;;;;;;;4401186;32;20205;-51
2022/01/09 05:02:25;;;;;;;66.10;32.63;;;;;;;;;;4401479;32;20267;-51
2022/01/09 05:04:51;;;;;;;58.93;34.53;;;;;;;;;;4401703;32;20340;-52
2022/01/09 05:07:16;;;;;;;67.07;35.80;;;;;;;;;;4400519;32;20318;-52
2022/01/09 05:09:42;;;;;;;69.90;35.07;;;;;;;;;;4403697;32;20256;-52
2022/01/09 05:12:08;;;;;;;56.13;32.33;;;;;;;;;;4403906;32;20294;-53
2022/01/09 05:14:33;;;;;;;56.73;32.60;;;;;;;;;;4404450;32;20721;-54
2022/01/09 05:16:58;;;;;;;57.43;33.27;;;;;;;;;;4404223;32;20324;-52
2022/01/09 05:19:28;;;;;;;64.77;32.00;;;;;;;;;;4390083;32;20744;-52
2022/01/09 05:21:55;;;;;;;78.93;43.13;;;;;;;;;;4404053;32;20257;-51
2022/01/09 05:24:21;;;;;;;55.80;34.17;;;;;;;;;;4404425;32;20261;-52
2022/01/09 05:26:46;;;;;;;55.93;33.73;;;;;;;;;;4404064;32;20229;-52
2022/01/09 05:29:12;;;;;;;68.97;34.53;;;;;;;;;;4402981;32;20287;-51
2022/01/09 05:31:38;;;;;;;141.73;54.77;;;;;;;;;;4402052;32;20592;-51
2022/01/09 05:34:04;;;;;;;138.63;53.23;;;;;;;;;;4403960;32;20226;-52
2022/01/09 05:36:29;;;;;;;94.80;43.10;;;;;;;;;;4403979;32;20257;-52
2022/01/09 05:38:55;;;;;;;61.37;31.93;;;;;;;;;;4403251;32;20243;-52
2022/01/09 05:41:21;;;;;;;61.80;32.50;;;;;;;;;;4404093;32;20657;-51
2022/01/09 05:43:46;;;;;;;65.87;30.07;;;;;;;;;;4403928;32;20280;-52
2022/01/09 05:46:12;;;;;;;50.23;27.63;;;;;;;;;;4404105;32;20257;-52
2022/01/09 05:48:37;;;;;;;46.20;24.97;;;;;;;;;;4403727;32;20298;-51
2022/01/09 05:51:02;;;;;;;55.37;27.57;;;;;;;;;;4402065;32;20272;-51
2022/01/09 05:53:28;;;;;;;48.80;28.07;;;;;;;;;;4390116;32;20354;-51
2022/01/09 05:55:53;;;;;;;56.23;32.70;;;;;;;;;;4402732;32;20326;-52
2022/01/09 05:58:19;;;;;;;67.60;34.87;;;;;;;;;;4393218;32;20322;-52
2022/01/09 06:00:44;;;;;;;55.97;33.40;;;;;;;;;;4403536;32;20217;-53
2022/01/09 06:03:10;;;;;;;70.53;35.90;;;;;;;;;;4403298;32;20253;-51
2022/01/09 06:05:35;;;;;;;68.33;31.43;;;;;;;;;;4403592;32;20589;-51
2022/01/09 06:08:01;;;;;;;57.30;30.67;;;;;;;;;;4389685;32;20830;-51
2022/01/09 06:10:26;;;;;;;61.87;33.80;;;;;;;;;;4402872;32;20226;-52
2022/01/09 06:12:52;;;;;;;80.50;38.93;;;;;;;;;;4403487;32;20777;-50
2022/01/09 06:15:17;;;;;;;84.77;44.53;;;;;;;;;;4403775;32;20308;-51
2022/01/09 06:17:44;;;;;;;74.47;39.77;;;;;;;;;;4403208;32;20288;-50
2022/01/09 06:20:11;;;;;;;100.70;48.43;;;;;;;;;;4402250;32;20285;-50
2022/01/09 06:22:37;;;;;;;93.77;44.97;;;;;;;;;;4403063;32;20278;-52
2022/01/09 06:25:04;;;;;;;98.07;49.30;;;;;;;;;;4403255;32;20217;-51
2022/01/09 06:27:30;;;;;;;105.83;51.13;;;;;;;;;;4402782;32;20304;-51
2022/01/09 06:29:55;;;;;;;94.60;49.67;;;;;;;;;;4402392;32;20226;-50
2022/01/09 06:32:21;;;;;;;101.13;54.53;;;;;;;;;;4402796;32;20700;-52
2022/01/09 06:34:46;;;;;;;107.27;58.10;;;;;;;;;;4403545;32;20624;-52
2022/01/09 06:37:12;;;;;;;114.03;62.37;;;;;;;;;;4402774;32;20229;-52
2022/01/09 06:39:39;;;;;;;102.87;59.37;;;;;;;;;;4402997;32;20334;-53
2022/01/09 06:42:05;;;;;;;125.47;59.23;;;;;;;;;;4402456;32;20226;-52
2022/01/09 06:44:30;;;;;;;117.80;63.37;;;;;;;;;;4402712;32;20261;-51
2022/01/09 06:46:55;;;;;;;135.87;73.37;;;;;;;;;;4403319;32;20225;-50
2022/01/09 06:49:21;;;;;;;107.93;61.10;;;;;;;;;;4403329;32;20277;-51
2022/01/09 06:51:46;;;;;;;93.93;51.73;;;;;;;;;;4403088;32;20279;-51
2022/01/09 06:54:13;;;;;;;76.13;44.47;;;;;;;;;;4403291;32;20308;-51
2022/01/09 06:56:39;;;;;;;72.50;42.63;;;;;;;;;;4400470;32;20336;-49
2022/01/09 06:59:04;;;;;;;54.97;33.90;;;;;;;;;;4400924;32;20315;-51
2022/01/09 07:01:30;;;;;;;55.07;30.87;;;;;;;;;;4401135;32;20229;-52
2022/01/09 07:03:55;;;;;;;120.90;68.87;;;;;;;;;;4400942;32;20253;-51
2022/01/09 07:06:21;;;;;;;69.57;37.97;;;;;;;;;;4401106;32;20245;-51
2022/01/09 07:08:46;;;;;;;55.00;34.47;;;;;;;;;;4400288;32;20288;-51
2022/01/09 07:11:12;;;;;;;54.90;34.70;;;;;;;;;;4401872;32;20295;-51
2022/01/09 07:13:37;;;;;;;65.20;37.60;;;;;;;;;;4401703;32;20253;-51
2022/01/09 07:16:03;;;;;;;63.57;37.70;;;;;;;;;;4402014;32;20233;-51
2022/01/09 07:18:28;;;;;;;63.70;38.53;;;;;;;;;;4401825;32;20319;-53
2022/01/09 07:20:54;;;;;;;70.93;43.47;;;;;;;;;;4400507;32;20324;-52
2022/01/09 07:23:19;;;;;;;81.10;49.27;;;;;;;;;;4400987;32;20335;-51
2022/01/09 07:25:45;;;;;;;71.67;45.43;;;;;;;;;;4402810;32;20256;-51
2022/01/09 07:28:10;;;;;;;83.67;48.40;;;;;;;;;;4402237;32;20385;-49
2022/01/09 07:30:36;;;;;;;81.73;50.30;;;;;;;;;;4401282;32;20313;-50
2022/01/09 07:33:03;;;;;;;75.83;47.43;;;;;;;;;;4400342;32;20241;-50
2022/01/09 07:35:29;;;;;;;73.73;41.73;;;;;;;;;;4402391;32;20280;-50
2022/01/09 07:37:54;;;;;;;69.03;40.00;;;;;;;;;;4401004;32;20231;-50
2022/01/09 07:40:20;;;;;;;70.23;40.43;;;;;;;;;;4401618;32;20218;-50
2022/01/09 07:42:47;;;;;;;64.73;42.03;;;;;;;;;;4401010;32;20273;-52
2022/01/09 07:45:14;;;;;;;73.37;42.30;;;;;;;;;;4402186;32;20231;-50
2022/01/09 07:47:39;;;;;;;71.03;43.20;;;;;;;;;;4401103;32;20385;-51
2022/01/09 07:50:09;;;;;;;69.47;42.43;;;;;;;;;;4401543;32;20277;-51
2022/01/09 07:52:36;;;;;;;80.83;46.00;;;;;;;;;;4401714;32;20276;-51
2022/01/09 07:55:04;;;;;;;85.63;46.03;;;;;;;;;;4388209;32;20310;-51
2022/01/09 07:57:29;;;;;;;73.57;44.70;;;;;;;;;;4401304;32;20832;-50
2022/01/09 07:59:58;;;;;;;82.00;45.97;;;;;;;;;;4401746;32;20419;-51
2022/01/09 08:02:23;;;;;;;66.30;37.53;;;;;;;;;;4401597;32;20258;-50
2022/01/09 08:04:50;;;;;;;70.03;43.13;;;;;;;;;;4401406;32;20312;-50
2022/01/09 08:07:16;;;;;;;80.90;45.73;;;;;;;;;;4402041;32;20276;-53
2022/01/09 08:09:44;;;;;;;86.53;48.27;;;;;;;;;;4401933;32;20587;-52
2022/01/09 08:12:10;;;;;;;80.70;47.67;;;;;;;;;;4400951;32;20363;-52
2022/01/09 08:14:38;;;;;;;91.10;53.33;;;;;;;;;;4401953;32;20292;-52
2022/01/09 08:17:04;;;;;;;94.17;55.47;;;;;;;;;;4401577;32;20355;-51
2022/01/09 08:19:31;;;;;;;91.80;53.77;;;;;;;;;;4401931;32;20308;-51
2022/01/09 08:21:57;;;;;;;107.53;54.47;;;;;;;;;;4401491;32;20262;-51
2022/01/09 08:24:22;;;;;;;97.60;57.57;;;;;;;;;;4401507;32;20692;-52
2022/01/09 08:26:48;;;;;;;89.93;52.67;;;;;;;;;;4401280;32;20233;-51
2022/01/09 08:29:15;;;;;;;92.97;49.97;;;;;;;;;;4401593;32;20462;-51
2022/01/09 08:31:41;;;;;;;94.40;53.83;;;;;;;;;;4401667;32;20230;-52
2022/01/09 08:34:06;;;;;;;94.30;53.57;;;;;;;;;;4401060;32;20747;-51
2022/01/09 08:36:32;;;;;;;100.10;56.80;;;;;;;;;;4401547;32;20295;-51
2022/01/09 08:38:58;;;;;;;87.47;47.87;;;;;;;;;;4385776;32;20658;-51
2022/01/09 08:41:23;;;;;;;80.73;46.50;;;;;;;;;;4396281;32;20642;-51
2022/01/09 08:43:49;;;;;;;86.07;50.63;;;;;;;;;;4396697;32;20300;-50
2022/01/09 08:46:15;;;;;;;84.47;50.23;;;;;;;;;;4400571;32;20272;-52
2022/01/09 08:48:41;;;;;;;96.73;53.40;;;;;;;;;;4400072;32;20346;-50
2022/01/09 08:51:07;;;;;;;100.70;59.70;;;;;;;;;;4397179;32;20249;-51
2022/01/09 08:53:36;;;;;;;105.47;60.50;;;;;;;;;;4397448;32;20303;-52
2022/01/09 08:56:05;;;;;;;94.37;53.47;;;;;;;;;;4397287;32;20666;-51
2022/01/09 08:58:31;;;;;;;87.67;51.07;;;;;;;;;;4398403;32;20237;-52
2022/01/09 09:00:58;;;;;;;91.03;54.90;;;;;;;;;;4396758;32;20251;-52
2022/01/09 09:03:23;;;;;;;100.10;61.17;;;;;;;;;;4396187;32;20213;-51
2022/01/09 09:05:49;;;;;;;105.83;63.23;;;;;;;;;;4396421;32;20361;-51
2022/01/09 09:08:14;;;;;;;97.10;57.97;;;;;;;;;;4396349;32;20537;-53
2022/01/09 09:10:40;;;;;;;97.00;57.23;;;;;;;;;;4397284;32;20222;-51
2022/01/09 09:13:06;;;;;;;89.73;54.00;;;;;;;;;;4397005;32;20450;-52
2022/01/09 09:15:31;;;;;;;92.40;50.37;;;;;;;;;;4395576;32;20238;-51
2022/01/09 09:17:57;;;;;;;84.37;52.27;;;;;;;;;;4396601;32;20814;-52
2022/01/09 09:20:23;;;;;;;99.27;53.83;;;;;;;;;;4396859;32;20209;-52
2022/01/09 09:22:49;;;;;;;87.87;51.27;;;;;;;;;;4395525;32;20649;-52
2022/01/09 09:25:15;;;;;;;92.30;56.47;;;;;;;;;;4395797;32;20217;-52
2022/01/09 09:27:41;;;;;;;111.43;61.73;;;;;;;;;;4395084;32;20276;-53
2022/01/09 09:30:07;;;;;;;97.00;58.20;;;;;;;;;;4397560;32;20225;-51
2022/01/09 09:32:33;;;;;;;103.43;59.93;;;;;;;;;;4395587;32;20567;-52
2022/01/09 09:34:59;;;;;;;93.13;53.17;;;;;;;;;;4397463;32;20205;-52
2022/01/09 09:37:28;;;;;;;82.97;48.00;;;;;;;;;;4395003;32;20690;-51
2022/01/09 09:39:54;;;;;;;80.60;49.03;;;;;;;;;;4389219;32;20614;-52
2022/01/09 09:42:21;;;;;;;88.20;52.90;;;;;;;;;;4402150;32;20303;-51
2022/01/09 09:44:47;;;;;;;79.60;46.43;;;;;;;;;;4407412;32;20607;-51
2022/01/09 09:47:13;;;;;;;81.43;49.93;;;;;;;;;;4403134;32;20241;-51
2022/01/09 09:49:38;;;;;;;91.93;51.87;;;;;;;;;;4403823;32;20334;-51
2022/01/09 09:52:06;;;;;;;82.27;50.87;;;;;;;;;;4402820;32;20308;-51
2022/01/09 09:54:31;;;;;;;84.13;48.40;;;;;;;;;;4402937;32;20301;-51
2022/01/09 09:56:57;;;;;;;91.87;49.47;;;;;;;;;;4402484;32;20853;-50
2022/01/09 09:59:29;;;;;;;90.03;51.83;;;;;;;;;;4403559;32;20639;-52
2022/01/09 10:01:55;;;;;;;99.00;53.10;;;;;;;;;;4402779;32;20271;-51
2022/01/09 10:04:22;;;;;;;92.33;52.30;;;;;;;;;;4402839;32;20299;-52
2022/01/09 10:06:49;;;;;;;83.00;49.87;;;;;;;;;;4402615;32;20225;-51
2022/01/09 10:09:16;;;;;;;55.10;31.30;;;;;;;;;;4403165;32;20197;-52
2022/01/09 10:11:44;;;;;;;104.80;62.60;;;;;;;;;;4402347;32;20585;-51
2022/01/09 10:14:21;;;;;;;92.57;52.27;;;;;;;;;;4402480;32;20681;-51
2022/01/09 10:17:12;;;;;;;90.67;53.17;;;;;;;;;;4401633;32;20286;-51
2022/01/09 10:19:47;;;;;;;83.30;48.47;;;;;;;;;;4403043;32;20210;-52
2022/01/09 10:22:26;;;;;;;89.03;47.43;;;;;;;;;;4402726;32;20292;-51
2022/01/09 10:24:52;;;;;;;82.93;46.07;;;;;;;;;;4402643;32;20274;-50
2022/01/09 10:27:31;;;;;;;85.63;46.00;;;;;;;;;;4393210;32;20272;-51
2022/01/09 10:29:57;;;;;;;86.10;44.57;;;;;;;;;;4401674;32;20307;-52
2022/01/09 10:32:28;;;;;;;92.53;49.17;;;;;;;;;;4402381;32;20304;-50
2022/01/09 10:35:16;;;;;;;91.77;50.87;;;;;;;;;;4403486;32;20618;-51
2022/01/09 10:37:44;;;;;;;97.83;56.07;;;;;;;;;;4399640;32;20275;-51
2022/01/09 10:40:19;;;;;;;86.27;48.90;;;;;;;;;;4402968;32;20245;-52
2022/01/09 10:42:45;;;;;;;91.50;49.40;;;;;;;;;;4402351;32;20315;-52
2022/01/09 10:45:21;;;;;;;98.93;51.67;;;;;;;;;;4402568;32;20570;-51
2022/01/09 10:47:48;;;;;;;97.77;57.80;;;;;;;;;;4402887;32;20244;-52
2022/01/09 10:50:25;;;;;;;88.43;52.13;;;;;;;;;;4402621;32;20229;-52
2022/01/09 10:52:50;;;;;;;102.23;55.93;;;;;;;;;;4402771;32;20266;-51
2022/01/09 10:55:16;;;;;;;95.17;53.83;;;;;;;;;;4403080;32;20201;-51
2022/01/09 10:57:42;;;;;;;93.97;53.07;;;;;;;;;;4403165;32;20760;-51
2022/01/09 11:00:15;;;;;;;95.03;51.93;;;;;;;;;;4402288;32;20249;-51
2022/01/09 11:02:41;;;;;;;101.00;49.50;;;;;;;;;;4402167;32;20237;-51
2022/01/09 11:05:07;;;;;;;102.00;54.30;;;;;;;;;;4402034;32;20217;-52
2022/01/09 11:07:34;;;;;;;96.93;55.93;;;;;;;;;;4401922;32;20221;-51
2022/01/09 11:10:00;;;;;;;93.50;52.87;;;;;;;;;;4401951;32;20205;-52
2022/01/09 11:12:33;;;;;;;85.93;47.70;;;;;;;;;;4401335;32;20242;-51
2022/01/09 11:15:01;;;;;;;77.23;43.00;;;;;;;;;;4401616;32;20715;-53
2022/01/09 11:17:27;;;;;;;77.47;44.57;;;;;;;;;;4402087;32;20238;-51
2022/01/09 11:19:53;;;;;;;78.33;42.87;;;;;;;;;;4401962;32;20280;-51
2022/01/09 11:22:19;;;;;;;84.37;48.97;;;;;;;;;;4402068;32;20277;-52
2022/01/09 11:25:09;;;;;;;86.77;52.83;;;;;;;;;;4402822;32;20292;-51
2022/01/09 11:27:43;;;;;;;90.87;52.10;;;;;;;;;;4398582;32;20383;-52
2022/01/09 11:30:27;;;;;;;99.27;55.67;;;;;;;;;;4393753;32;20304;-51
2022/01/09 11:33:01;;;;;;;103.63;56.13;;;;;;;;;;4402059;32;20233;-52
2022/01/09 11:35:49;;;;;;;101.70;60.40;;;;;;;;;;4402122;32;20571;-51
2022/01/09 11:38:30;;;;;;;93.03;56.97;;;;;;;;;;4402594;32;20218;-51
2022/01/09 11:41:16;;;;;;;104.03;55.13;;;;;;;;;;4401273;32;20237;-52
2022/01/09 11:44:08;;;;;;;99.87;55.83;;;;;;;;;;4403006;32;20193;-52
2022/01/09 11:46:56;;;;;;;94.73;55.27;;;;;;;;;;4402077;32;20226;-52
2022/01/09 11:49:22;;;;;;;110.67;59.47;;;;;;;;;;4403185;32;20737;-52
2022/01/09 11:51:59;;;;;;;170.07;93.53;;;;;;;;;;4401697;32;20225;-51
2022/01/09 11:54:26;;;;;;;243.03;148.73;;;;;;;;;;4386133;32;20575;-51
2022/01/09 11:56:52;;;;;;;116.10;68.77;;;;;;;;;;4399780;32;20304;-52
2022/01/09 11:59:36;;;;;;;179.80;104.73;;;;;;;;;;4395368;32;20249;-53
2022/01/09 12:02:06;;;;;;;293.20;186.67;;;;;;;;;;4393103;32;20269;-52
2022/01/09 12:04:32;;;;;;;145.97;90.70;;;;;;;;;;4395120;32;20723;-52
2022/01/09 12:07:03;;;;;;;98.63;58.77;;;;;;;;;;4393499;32;20249;-52
2022/01/09 12:09:37;;;;;;;99.40;56.50;;;;;;;;;;4393221;32;20202;-52
2022/01/09 12:12:11;;;;;;;188.70;95.53;;;;;;;;;;4391508;32;20399;-51
2022/01/09 12:14:45;;;;;;;108.10;60.83;;;;;;;;;;4394420;32;20217;-52
2022/01/09 12:17:28;;;;;;;94.67;55.40;;;;;;;;;;4394278;32;20252;-52
2022/01/09 12:20:04;;;;;;;90.73;51.23;;;;;;;;;;4401125;32;20205;-52
2022/01/09 12:22:48;;;;;;;97.03;54.50;;;;;;;;;;4396148;32;20369;-52
2022/01/09 12:25:25;;;;;;;113.47;74.30;;;;;;;;;;4392447;32;20225;-52
2022/01/09 12:27:54;;;;;;;113.73;66.03;;;;;;;;;;4392643;32;20236;-51
2022/01/09 12:30:33;;;;;;;87.50;47.90;;;;;;;;;;4400190;32;20308;-52
2022/01/09 12:33:06;;;;;;;80.17;43.40;;;;;;;;;;4400886;32;20322;-51
2022/01/09 12:35:33;;;;;;;79.43;44.10;;;;;;;;;;4397659;32;20217;-50
2022/01/09 12:38:00;;;;;;;74.93;42.80;;;;;;;;;;4400736;32;20603;-51
2022/01/09 12:40:29;;;;;;;69.50;41.33;;;;;;;;;;4398167;32;20213;-51
2022/01/09 12:42:57;;;;;;;69.70;44.83;;;;;;;;;;4399841;32;20239;-52
2022/01/09 12:45:28;;;;;;;75.67;44.40;;;;;;;;;;4385787;32;20229;-52
2022/01/09 12:47:55;;;;;;;91.20;51.37;;;;;;;;;;4399910;32;20820;-51
2022/01/09 12:50:32;;;;;;;74.63;49.67;;;;;;;;;;4399603;32;20233;-51
2022/01/09 12:53:18;;;;;;;121.57;73.70;;;;;;;;;;4399483;32;20247;-52
2022/01/09 12:55:59;;;;;;;71.67;42.47;;;;;;;;;;4401132;32;20329;-51
2022/01/09 12:58:27;;;;;;;78.33;45.40;;;;;;;;;;4401199;32;20252;-52
2022/01/09 13:00:53;;;;;;;58.10;36.37;;;;;;;;;;4401016;32;20607;-51
2022/01/09 13:03:25;;;;;;;52.73;33.93;;;;;;;;;;4398052;32;20598;-51
2022/01/09 13:05:55;;;;;;;85.17;46.63;;;;;;;;;;4398800;32;20228;-52
2022/01/09 13:08:21;;;;;;;55.13;31.03;;;;;;;;;;4399371;32;20210;-52
2022/01/09 13:11:05;;;;;;;61.53;37.77;;;;;;;;;;4399560;32;20279;-51
2022/01/09 13:13:32;;;;;;;65.60;36.60;;;;;;;;;;4398890;32;20237;-52
2022/01/09 13:15:58;;;;;;;64.30;40.57;;;;;;;;;;4386112;32;20241;-52
2022/01/09 13:18:45;;;;;;;52.43;30.27;;;;;;;;;;4399940;32;20285;-52
2022/01/09 13:21:12;;;;;;;54.43;33.27;;;;;;;;;;4401531;32;20314;-51
2022/01/09 13:23:53;;;;;;;73.27;38.80;;;;;;;;;;4400450;32;20242;-51
2022/01/09 13:26:18;;;;;;;61.10;35.13;;;;;;;;;;4400841;32;20240;-51
2022/01/09 13:28:45;;;;;;;50.57;30.23;;;;;;;;;;4401456;32;20322;-53
2022/01/09 13:31:11;;;;;;;52.43;29.70;;;;;;;;;;4403290;32;20321;-52
2022/01/09 13:34:03;;;;;;;45.83;29.73;;;;;;;;;;4403340;32;20285;-53
2022/01/09 13:36:41;;;;;;;66.50;37.23;;;;;;;;;;4390515;32;20545;-51
2022/01/09 13:39:11;;;;;;;78.30;47.17;;;;;;;;;;4404179;32;20610;-51
2022/01/09 13:41:43;;;;;;;72.97;43.53;;;;;;;;;;4403513;32;20310;-51
2022/01/09 13:44:10;;;;;;;78.30;42.53;;;;;;;;;;4402072;32;20281;-51
2022/01/09 13:46:37;;;;;;;75.50;40.63;;;;;;;;;;4404505;32;20610;-53
2022/01/09 13:49:11;;;;;;;67.57;38.70;;;;;;;;;;4403561;32;20260;-52
2022/01/09 13:51:39;;;;;;;72.93;40.47;;;;;;;;;;4404128;32;20257;-52
2022/01/09 13:54:07;;;;;;;74.77;43.67;;;;;;;;;;4402780;32;20353;-53
2022/01/09 13:56:32;;;;;;;66.53;40.73;;;;;;;;;;4403602;32;20217;-52
2022/01/09 13:58:58;;;;;;;89.87;49.67;;;;;;;;;;4403148;32;20327;-54
2022/01/09 14:01:45;;;;;;;80.03;43.33;;;;;;;;;;4403599;32;20277;-52
2022/01/09 14:04:12;;;;;;;63.43;35.93;;;;;;;;;;4403342;32;20230;-52
2022/01/09 14:06:38;;;;;;;61.40;39.10;;;;;;;;;;4403393;32;20229;-51
2022/01/09 14:09:04;;;;;;;161.20;86.77;;;;;;;;;;4403402;32;20327;-51
2022/01/09 14:11:29;;;;;;;85.23;49.73;;;;;;;;;;4403679;32;20296;-52
2022/01/09 14:13:55;;;;;;;120.10;68.13;;;;;;;;;;4388745;32;20368;-54
2022/01/09 14:16:20;;;;;;;90.17;51.87;;;;;;;;;;4402365;32;20530;-52
2022/01/09 14:18:55;;;;;;;89.90;53.50;;;;;;;;;;4403032;32;20383;-51